createdAt,value
2018-12-01T00:01:24.481Z,2.50
2018-12-01T00:03:52.955Z,2.50
2018-12-01T00:06:21.250Z,2.50
2018-12-01T00:08:49.578Z,2.50
2018-12-01T00:11:17.870Z,2.50
2018-12-01T00:13:46.186Z,2.50
2018-12-01T00:16:14.490Z,2.50
2018-12-01T00:18:42.818Z,2.50
2018-12-01T00:21:11.120Z,2.50
2018-12-01T00:23:39.438Z,2.60
2018-12-01T00:26:07.738Z,2.70
2018-12-01T00:28:36.055Z,2.70
2018-12-01T00:31:04.358Z,2.70
2018-12-01T00:33:32.682Z,2.70
2018-12-01T00:36:01.010Z,2.70
2018-12-01T00:38:29.343Z,2.70
2018-12-01T00:40:57.642Z,2.60
2018-12-01T00:43:25.951Z,2.60
2018-12-01T00:45:54.279Z,2.60
2018-12-01T00:48:22.579Z,2.60
2018-12-01T00:50:50.906Z,2.70
2018-12-01T00:53:19.207Z,2.60
2018-12-01T00:55:47.529Z,2.70
2018-12-01T00:58:15.823Z,2.60
2018-12-01T01:00:44.141Z,2.50
2018-12-01T01:03:12.431Z,2.50
2018-12-01T01:05:40.746Z,2.40
2018-12-01T01:08:09.037Z,2.30
2018-12-01T01:10:37.348Z,2.30
2018-12-01T01:13:05.640Z,2.30
2018-12-01T01:15:33.958Z,2.30
2018-12-01T01:18:02.342Z,2.20
2018-12-01T01:20:30.662Z,2.20
2018-12-01T01:22:58.963Z,2.30
2018-12-01T01:25:27.281Z,2.30
2018-12-01T01:27:55.597Z,2.30
2018-12-01T01:30:24.485Z,2.30
2018-12-01T01:33:29.889Z,2.30
2018-12-01T01:35:58.202Z,2.30
2018-12-01T01:38:26.510Z,2.40
2018-12-01T01:41:00.243Z,2.40
2018-12-01T01:43:28.529Z,2.40
2018-12-01T01:45:56.837Z,2.40
2018-12-01T01:48:25.140Z,2.50
2018-12-01T01:50:53.451Z,2.50
2018-12-01T01:55:44.415Z,2.50
2018-12-01T01:58:12.718Z,2.60
2018-12-01T02:00:41.047Z,2.70
2018-12-01T02:03:09.345Z,2.70
2018-12-01T02:05:37.662Z,2.70
2018-12-01T02:08:05.966Z,2.80
2018-12-01T02:10:34.281Z,2.80
2018-12-01T02:13:02.584Z,2.80
2018-12-01T02:15:30.903Z,2.70
2018-12-01T02:17:59.193Z,2.80
2018-12-01T02:20:27.518Z,2.90
2018-12-01T02:22:55.822Z,2.80
2018-12-01T02:25:24.147Z,2.80
2018-12-01T02:27:52.507Z,2.70
2018-12-01T02:30:21.231Z,2.70
2018-12-01T02:32:49.793Z,2.80
2018-12-01T02:35:20.533Z,2.80
2018-12-01T02:37:48.853Z,2.70
2018-12-01T02:40:17.172Z,2.70
2018-12-01T02:42:45.474Z,2.80
2018-12-01T02:45:25.138Z,2.70
2018-12-01T02:47:53.442Z,2.80
2018-12-01T02:50:24.022Z,2.80
2018-12-01T02:52:54.445Z,2.80
2018-12-01T02:55:22.763Z,2.90
2018-12-01T02:57:51.085Z,2.90
2018-12-01T03:00:19.407Z,3.00
2018-12-01T03:02:47.701Z,3.00
2018-12-01T03:05:16.022Z,3.00
2018-12-01T03:07:44.322Z,3.00
2018-12-01T03:10:14.556Z,3.00
2018-12-01T03:12:42.856Z,2.90
2018-12-01T03:15:12.228Z,2.90
2018-12-01T03:17:40.541Z,2.80
2018-12-01T03:20:12.173Z,2.80
2018-12-01T03:22:40.468Z,2.80
2018-12-01T03:25:09.983Z,2.80
2018-12-01T03:27:38.519Z,2.80
2018-12-01T03:30:10.834Z,2.90
2018-12-01T03:32:39.176Z,2.90
2018-12-01T03:35:12.052Z,2.90
2018-12-01T03:37:41.946Z,2.90
2018-12-01T03:40:10.474Z,3.00
2018-12-01T03:42:38.804Z,3.00
2018-12-01T03:45:09.094Z,3.00
2018-12-01T03:47:37.390Z,2.90
2018-12-01T03:50:06.890Z,2.90
2018-12-01T03:52:35.183Z,2.80
2018-12-01T03:55:10.056Z,2.90
2018-12-01T03:57:38.466Z,2.80
2018-12-01T04:00:07.430Z,2.80
2018-12-01T04:02:35.737Z,2.80
2018-12-01T04:05:04.109Z,2.70
2018-12-01T04:07:32.401Z,2.60
2018-12-01T04:10:00.689Z,2.70
2018-12-01T04:12:29.008Z,2.60
2018-12-01T04:14:57.310Z,2.70
2018-12-01T04:17:25.629Z,2.70
2018-12-01T04:19:53.921Z,2.70
2018-12-01T04:22:22.233Z,2.70
2018-12-01T04:24:50.531Z,2.80
2018-12-01T04:27:18.849Z,2.80
2018-12-01T04:29:47.141Z,2.80
2018-12-01T04:32:15.494Z,2.90
2018-12-01T04:34:43.799Z,3.00
2018-12-01T04:37:12.138Z,3.00
2018-12-01T04:39:40.437Z,3.10
2018-12-01T04:42:08.754Z,3.10
2018-12-01T04:44:37.081Z,3.10
2018-12-01T04:47:05.498Z,3.20
2018-12-01T04:49:33.867Z,3.20
2018-12-01T04:52:02.190Z,3.20
2018-12-01T04:54:30.482Z,3.20
2018-12-01T04:56:58.795Z,3.30
2018-12-01T04:59:27.102Z,3.40
2018-12-01T05:01:55.414Z,3.40
2018-12-01T05:04:23.710Z,3.40
2018-12-01T05:06:52.021Z,3.40
2018-12-01T05:09:20.314Z,3.40
2018-12-01T05:11:48.626Z,3.40
2018-12-01T05:14:16.921Z,3.30
2018-12-01T05:16:45.245Z,3.40
2018-12-01T05:19:13.537Z,3.40
2018-12-01T05:21:41.859Z,3.30
2018-12-01T05:24:10.154Z,3.20
2018-12-01T05:26:38.466Z,3.10
2018-12-01T05:29:06.771Z,3.10
2018-12-01T05:31:35.086Z,3.10
2018-12-01T05:34:03.427Z,3.10
2018-12-01T05:36:31.746Z,3.00
2018-12-01T05:39:00.066Z,2.80
2018-12-01T05:41:28.482Z,2.60
2018-12-01T05:43:56.930Z,2.50
2018-12-01T05:46:25.262Z,2.30
2018-12-01T05:48:53.561Z,2.20
2018-12-01T05:51:21.876Z,2.10
2018-12-01T05:53:50.178Z,2.00
2018-12-01T05:56:18.497Z,1.90
2018-12-01T05:58:46.880Z,1.80
2018-12-01T06:01:15.202Z,1.80
2018-12-01T06:03:43.494Z,1.60
2018-12-01T06:06:11.817Z,1.60
2018-12-01T06:08:40.118Z,1.50
2018-12-01T06:11:08.429Z,1.50
2018-12-01T06:13:36.731Z,1.40
2018-12-01T06:16:05.274Z,1.40
2018-12-01T06:18:33.570Z,1.30
2018-12-01T06:21:01.874Z,1.30
2018-12-01T06:23:30.193Z,1.40
2018-12-01T06:25:58.586Z,1.30
2018-12-01T06:28:26.997Z,1.30
2018-12-01T06:30:55.308Z,1.30
2018-12-01T06:33:23.637Z,1.00
2018-12-01T06:35:51.934Z,0.90
2018-12-01T06:38:20.276Z,0.70
2018-12-01T06:40:48.588Z,0.70
2018-12-01T06:43:16.907Z,0.70
2018-12-01T06:45:45.206Z,0.60
2018-12-01T06:48:13.522Z,0.70
2018-12-01T06:50:41.882Z,0.80
2018-12-01T06:53:10.193Z,0.70
2018-12-01T06:55:38.493Z,0.80
2018-12-01T06:58:06.906Z,0.70
2018-12-01T07:00:35.339Z,0.70
2018-12-01T07:03:03.682Z,0.70
2018-12-01T07:05:33.967Z,0.80
2018-12-01T07:08:02.296Z,0.90
2018-12-01T07:10:30.586Z,1.00
2018-12-01T07:13:01.402Z,1.10
2018-12-01T07:15:34.036Z,1.10
2018-12-01T07:18:02.363Z,1.10
2018-12-01T07:20:30.659Z,1.10
2018-12-01T07:22:58.974Z,1.20
2018-12-01T07:25:27.270Z,1.20
2018-12-01T07:27:55.592Z,1.20
2018-12-01T07:30:23.978Z,1.20
2018-12-01T07:32:52.299Z,1.30
2018-12-01T07:35:20.610Z,1.20
2018-12-01T07:37:48.946Z,1.20
2018-12-01T07:40:18.169Z,1.10
2018-12-01T07:42:46.482Z,1.20
2018-12-01T07:45:15.860Z,1.20
2018-12-01T07:47:44.178Z,1.30
2018-12-01T07:50:15.525Z,1.40
2018-12-01T07:52:45.376Z,1.40
2018-12-01T07:55:13.669Z,1.40
2018-12-01T07:57:41.973Z,1.50
2018-12-01T08:00:14.411Z,1.50
2018-12-01T08:02:43.825Z,1.60
2018-12-01T08:05:12.278Z,1.60
2018-12-01T08:07:40.593Z,1.70
2018-12-01T08:10:11.778Z,1.80
2018-12-01T08:12:40.102Z,1.90
2018-12-01T08:15:13.245Z,2.00
2018-12-01T08:17:41.566Z,2.10
2018-12-01T08:20:10.949Z,2.20
2018-12-01T08:22:39.266Z,2.50
2018-12-01T08:25:12.237Z,2.50
2018-12-01T08:27:40.562Z,2.40
2018-12-01T08:30:12.946Z,2.40
2018-12-01T08:32:41.287Z,2.50
2018-12-01T08:35:09.603Z,2.50
2018-12-01T08:37:37.946Z,2.60
2018-12-01T08:40:09.666Z,2.70
2018-12-01T08:42:38.003Z,2.80
2018-12-01T08:45:09.022Z,2.90
2018-12-01T08:47:37.510Z,3.00
2018-12-01T08:50:10.010Z,3.10
2018-12-01T08:52:38.698Z,3.20
2018-12-01T08:55:08.611Z,3.20
2018-12-01T08:57:36.982Z,3.30
2018-12-01T09:00:10.175Z,3.40
2018-12-01T09:02:38.493Z,3.50
2018-12-01T09:05:07.609Z,3.60
2018-12-01T09:07:35.934Z,3.70
2018-12-01T09:10:05.944Z,3.80
2018-12-01T09:12:34.253Z,3.80
2018-12-01T09:15:02.558Z,3.90
2018-12-01T09:17:30.878Z,4.10
2018-12-01T09:19:59.267Z,4.10
2018-12-01T09:22:27.583Z,4.20
2018-12-01T09:24:55.905Z,4.20
2018-12-01T09:27:24.199Z,4.30
2018-12-01T09:29:52.514Z,4.40
2018-12-01T09:32:20.815Z,4.40
2018-12-01T09:34:49.134Z,4.60
2018-12-01T09:37:17.457Z,4.60
2018-12-01T09:39:45.779Z,4.70
2018-12-01T09:42:14.114Z,4.70
2018-12-01T09:44:42.429Z,4.90
2018-12-01T09:47:10.733Z,5.00
2018-12-01T09:49:39.056Z,5.00
2018-12-01T09:52:07.366Z,5.00
2018-12-01T09:54:35.683Z,5.00
2018-12-01T09:57:03.982Z,5.10
2018-12-01T09:59:32.304Z,5.20
2018-12-01T10:02:00.601Z,5.20
2018-12-01T10:04:28.923Z,5.20
2018-12-01T10:06:57.222Z,5.30
2018-12-01T10:09:25.538Z,5.20
2018-12-01T10:11:54.006Z,5.20
2018-12-01T10:14:22.335Z,5.30
2018-12-01T10:16:50.630Z,5.30
2018-12-01T10:19:18.946Z,5.30
2018-12-01T10:21:47.256Z,5.40
2018-12-01T10:24:15.577Z,5.40
2018-12-01T10:26:43.891Z,5.40
2018-12-01T10:29:12.227Z,5.40
2018-12-01T10:31:40.539Z,5.40
2018-12-01T10:34:08.858Z,5.40
2018-12-01T10:36:37.156Z,5.50
2018-12-01T10:39:08.661Z,5.50
2018-12-01T10:41:37.103Z,5.50
2018-12-01T10:44:05.747Z,5.50
2018-12-01T10:46:34.038Z,5.60
2018-12-01T10:49:02.349Z,5.60
2018-12-01T10:51:30.775Z,5.60
2018-12-01T10:53:59.086Z,5.60
2018-12-01T10:56:27.394Z,5.60
2018-12-01T10:58:55.719Z,5.80
2018-12-01T11:01:28.216Z,5.80
2018-12-01T11:03:56.794Z,5.80
2018-12-01T11:06:25.099Z,5.80
2018-12-01T11:08:53.429Z,5.80
2018-12-01T11:11:21.742Z,5.80
2018-12-01T11:13:50.078Z,5.90
2018-12-01T11:16:18.424Z,5.90
2018-12-01T11:18:46.745Z,6.00
2018-12-01T11:21:15.047Z,6.10
2018-12-01T11:23:43.386Z,6.10
2018-12-01T11:26:11.682Z,6.10
2018-12-01T11:28:40.003Z,6.20
2018-12-01T11:31:08.307Z,6.20
2018-12-01T11:33:36.627Z,6.20
2018-12-01T11:36:05.125Z,6.20
2018-12-01T11:38:33.494Z,6.20
2018-12-01T11:41:01.801Z,6.20
2018-12-01T11:43:30.097Z,6.10
2018-12-01T11:45:58.439Z,6.20
2018-12-01T11:48:26.738Z,6.10
2018-12-01T11:50:55.053Z,6.10
2018-12-01T11:53:23.358Z,6.00
2018-12-01T11:55:51.686Z,6.10
2018-12-01T11:58:19.988Z,6.20
2018-12-01T12:00:48.316Z,6.30
2018-12-01T12:03:16.625Z,6.30
2018-12-01T12:05:46.938Z,6.40
2018-12-01T12:08:19.139Z,6.50
2018-12-01T12:10:47.462Z,6.60
2018-12-01T12:13:15.870Z,6.70
2018-12-01T12:15:44.319Z,6.80
2018-12-01T12:18:12.893Z,6.60
2018-12-01T12:20:41.210Z,6.60
2018-12-01T12:23:09.522Z,6.50
2018-12-01T12:25:37.834Z,6.30
2018-12-01T12:28:06.495Z,6.20
2018-12-01T12:30:34.990Z,6.20
2018-12-01T12:33:03.330Z,6.30
2018-12-01T12:35:31.651Z,6.20
2018-12-01T12:37:59.979Z,6.10
2018-12-01T12:40:28.323Z,6.10
2018-12-01T12:42:58.567Z,6.00
2018-12-01T12:45:26.901Z,5.90
2018-12-01T12:47:55.206Z,5.90
2018-12-01T12:50:23.620Z,5.80
2018-12-01T12:52:53.154Z,5.80
2018-12-01T12:55:22.395Z,5.80
2018-12-01T12:57:50.717Z,5.80
2018-12-01T13:00:20.027Z,5.90
2018-12-01T13:02:51.426Z,6.10
2018-12-01T13:05:21.903Z,6.10
2018-12-01T13:07:50.201Z,6.10
2018-12-01T13:10:19.692Z,6.00
2018-12-01T13:12:47.990Z,6.00
2018-12-01T13:15:17.257Z,5.90
2018-12-01T13:17:46.073Z,5.90
2018-12-01T13:20:19.233Z,5.90
2018-12-01T13:22:48.599Z,5.90
2018-12-01T13:25:16.930Z,5.90
2018-12-01T13:27:48.037Z,6.00
2018-12-01T13:30:18.710Z,6.00
2018-12-01T13:32:47.133Z,6.00
2018-12-01T13:35:15.459Z,6.00
2018-12-01T13:37:43.777Z,6.00
2018-12-01T13:40:14.945Z,6.20
2018-12-01T13:42:43.830Z,6.20
2018-12-01T13:45:13.365Z,6.20
2018-12-01T13:47:41.727Z,6.20
2018-12-01T13:50:12.306Z,6.20
2018-12-01T13:52:40.657Z,6.20
2018-12-01T13:55:09.410Z,6.10
2018-12-01T13:57:37.713Z,5.90
2018-12-01T14:00:22.146Z,6.00
2018-12-01T14:02:50.450Z,5.90
2018-12-01T14:05:18.778Z,5.90
2018-12-01T14:07:47.117Z,5.80
2018-12-01T14:10:21.541Z,5.90
2018-12-01T14:12:51.148Z,5.90
2018-12-01T14:15:21.422Z,5.80
2018-12-01T14:17:49.882Z,5.80
2018-12-01T14:20:18.623Z,5.90
2018-12-01T14:22:47.692Z,5.80
2018-12-01T14:25:16.913Z,5.80
2018-12-01T14:27:54.615Z,5.80
2018-12-01T14:30:22.983Z,5.80
2018-12-01T14:32:51.299Z,5.80
2018-12-01T14:35:36.694Z,5.90
2018-12-01T14:38:07.238Z,5.80
2018-12-01T14:40:35.946Z,5.60
2018-12-01T14:43:04.246Z,5.60
2018-12-01T14:45:32.649Z,5.60
2018-12-01T14:48:00.955Z,5.50
2018-12-01T14:50:29.265Z,5.40
2018-12-01T14:52:57.562Z,5.40
2018-12-01T14:55:25.904Z,5.20
2018-12-01T14:57:54.228Z,5.10
2018-12-01T15:00:24.395Z,5.00
2018-12-01T15:02:53.809Z,4.90
2018-12-01T15:05:22.147Z,4.80
2018-12-01T15:07:50.668Z,4.60
2018-12-01T15:10:20.115Z,4.50
2018-12-01T15:12:48.418Z,4.40
2018-12-01T15:15:20.091Z,4.30
2018-12-01T15:17:48.391Z,4.30
2018-12-01T15:20:18.606Z,4.20
2018-12-01T15:22:48.097Z,4.10
2018-12-01T15:25:17.347Z,4.00
2018-12-01T15:27:45.646Z,3.90
2018-12-01T15:30:16.138Z,3.80
2018-12-01T15:32:46.901Z,3.70
2018-12-01T15:35:15.350Z,3.50
2018-12-01T15:37:44.517Z,3.40
2018-12-01T15:40:19.844Z,3.40
2018-12-01T15:42:48.349Z,3.40
2018-12-01T15:45:17.851Z,3.30
2018-12-01T15:47:46.187Z,3.50
2018-12-01T15:50:19.410Z,3.50
2018-12-01T15:52:51.258Z,3.70
2018-12-01T15:55:19.830Z,3.90
2018-12-01T15:57:48.228Z,3.90
2018-12-01T16:00:18.840Z,3.90
2018-12-01T16:02:47.211Z,3.80
2018-12-01T16:05:17.478Z,3.70
2018-12-01T16:07:46.210Z,3.60
2018-12-01T16:10:15.802Z,3.50
2018-12-01T16:12:44.925Z,3.40
2018-12-01T16:15:15.753Z,3.20
2018-12-01T16:17:44.115Z,3.00
2018-12-01T16:20:13.459Z,2.90
2018-12-01T16:22:41.818Z,2.80
2018-12-01T16:25:13.230Z,2.60
2018-12-01T16:27:42.247Z,2.60
2018-12-01T16:30:14.300Z,2.60
2018-12-01T16:32:42.617Z,2.50
2018-12-01T16:35:10.919Z,2.40
2018-12-01T16:37:39.249Z,2.30
2018-12-01T16:40:16.787Z,2.20
2018-12-01T16:42:45.121Z,2.00
2018-12-01T16:45:14.586Z,1.90
2018-12-01T16:47:42.905Z,1.90
2018-12-01T16:50:12.354Z,1.70
2018-12-01T16:52:41.019Z,1.70
2018-12-01T16:55:11.126Z,1.60
2018-12-01T16:57:39.502Z,1.50
2018-12-01T17:00:14.271Z,1.50
2018-12-01T17:02:43.011Z,1.40
2018-12-01T17:05:12.596Z,1.30
2018-12-01T17:07:40.925Z,1.20
2018-12-01T17:10:11.906Z,1.20
2018-12-01T17:12:40.326Z,1.20
2018-12-01T17:15:12.315Z,1.20
2018-12-01T17:17:40.632Z,1.10
2018-12-01T17:20:12.036Z,1.00
2018-12-01T17:22:40.871Z,0.90
2018-12-01T17:25:11.270Z,0.90
2018-12-01T17:27:39.599Z,0.90
2018-12-01T17:30:17.817Z,0.90
2018-12-01T17:32:46.285Z,0.70
2018-12-01T17:35:16.526Z,0.80
2018-12-01T17:37:46.258Z,0.60
2018-12-01T17:40:19.457Z,0.60
2018-12-01T17:42:49.286Z,0.60
2018-12-01T17:45:17.590Z,0.50
2018-12-01T17:47:45.951Z,0.60
2018-12-01T17:50:15.271Z,0.40
2018-12-01T17:52:46.536Z,0.50
2018-12-01T17:55:15.459Z,0.50
2018-12-01T17:57:44.266Z,0.50
2018-12-01T18:00:16.206Z,0.50
2018-12-01T18:02:44.546Z,0.30
2018-12-01T18:05:14.426Z,0.30
2018-12-01T18:07:42.742Z,0.40
2018-12-01T18:10:13.354Z,0.50
2018-12-01T18:12:42.274Z,0.50
2018-12-01T18:15:12.802Z,0.50
2018-12-01T18:17:41.125Z,0.50
2018-12-01T18:20:19.133Z,0.50
2018-12-01T18:23:03.216Z,0.40
2018-12-01T18:25:33.818Z,0.40
2018-12-01T18:28:02.146Z,0.40
2018-12-01T18:30:33.154Z,0.30
2018-12-01T18:33:19.285Z,0.20
2018-12-01T18:35:47.582Z,0.10
2018-12-01T18:38:15.913Z,0.10
2018-12-01T18:40:44.214Z,0.10
2018-12-01T18:43:12.530Z,0.10
2018-12-01T18:45:42.861Z,0.10
2018-12-01T18:48:11.177Z,0.10
2018-12-01T18:50:39.634Z,0.40
2018-12-01T18:53:09.177Z,0.50
2018-12-01T18:55:38.983Z,0.60
2018-12-01T18:58:08.726Z,0.50
2018-12-01T19:00:42.022Z,0.60
2018-12-01T19:03:10.348Z,0.70
2018-12-01T19:05:38.665Z,0.90
2018-12-01T19:08:06.982Z,0.80
2018-12-01T19:10:35.281Z,0.90
2018-12-01T19:13:03.693Z,1.00
2018-12-01T19:15:31.991Z,1.00
2018-12-01T19:18:00.407Z,1.20
2018-12-01T19:20:28.716Z,1.20
2018-12-01T19:22:57.035Z,1.20
2018-12-01T19:25:25.334Z,1.20
2018-12-01T19:27:54.766Z,1.40
2018-12-01T19:30:23.103Z,1.30
2018-12-01T19:32:55.852Z,1.20
2018-12-01T19:35:24.159Z,1.30
2018-12-01T19:37:53.545Z,1.50
2018-12-01T19:40:33.794Z,1.40
2018-12-01T19:43:02.714Z,1.40
2018-12-01T19:45:31.028Z,1.50
2018-12-01T19:47:59.343Z,1.70
2018-12-01T19:50:33.308Z,1.90
2018-12-01T19:53:01.663Z,2.00
2018-12-01T19:55:30.394Z,2.00
2018-12-01T19:57:59.018Z,2.10
2018-12-01T20:00:28.422Z,2.30
2018-12-01T20:03:00.430Z,2.60
2018-12-01T20:05:28.726Z,3.10
2018-12-01T20:07:57.042Z,3.20
2018-12-01T20:10:30.162Z,3.20
2018-12-01T20:13:01.334Z,3.20
2018-12-01T20:15:33.515Z,3.20
2018-12-01T20:18:03.980Z,3.10
2018-12-01T20:20:32.288Z,3.00
2018-12-01T20:23:00.680Z,3.10
2018-12-01T20:25:28.976Z,3.10
2018-12-01T20:27:57.298Z,3.00
2018-12-01T20:30:25.597Z,3.20
2018-12-01T20:32:53.919Z,3.50
2018-12-01T20:35:26.989Z,3.70
2018-12-01T20:37:59.710Z,3.80
2018-12-01T20:40:28.009Z,4.00
2018-12-01T20:42:56.315Z,3.90
2018-12-01T20:45:24.602Z,3.70
2018-12-01T20:47:52.926Z,3.60
2018-12-01T20:50:21.230Z,3.60
2018-12-01T20:52:49.546Z,3.60
2018-12-01T20:55:21.169Z,3.70
2018-12-01T20:57:53.161Z,3.70
2018-12-01T21:00:21.590Z,3.80
2018-12-01T21:02:50.669Z,3.90
2018-12-01T21:05:21.625Z,3.90
2018-12-01T21:07:50.505Z,4.00
2018-12-01T21:10:22.943Z,4.10
2018-12-01T21:12:52.272Z,4.20
2018-12-01T21:15:21.351Z,4.20
2018-12-01T21:17:49.683Z,4.30
2018-12-01T21:20:18.431Z,4.40
2018-12-01T21:22:48.162Z,4.40
2018-12-01T21:25:22.182Z,4.30
2018-12-01T21:27:50.722Z,4.20
2018-12-01T21:30:22.485Z,4.10
2018-12-01T21:32:56.976Z,4.10
2018-12-01T21:35:25.528Z,4.10
2018-12-01T21:37:55.401Z,4.00
2018-12-01T21:40:24.286Z,4.10
2018-12-01T21:42:52.592Z,4.00
2018-12-01T21:45:21.026Z,4.00
2018-12-01T21:47:49.422Z,3.80
2018-12-01T21:50:19.819Z,3.80
2018-12-01T21:52:50.766Z,3.70
2018-12-01T21:55:19.222Z,3.60
2018-12-01T21:57:48.253Z,3.40
2018-12-01T22:00:20.666Z,3.30
2018-12-01T22:02:50.871Z,3.30
2018-12-01T22:05:20.814Z,3.40
2018-12-01T22:07:49.106Z,3.30
2018-12-01T22:10:17.435Z,3.30
2018-12-01T22:12:45.739Z,3.20
2018-12-01T22:15:17.195Z,3.10
2018-12-01T22:17:45.843Z,3.00
2018-12-01T22:20:16.574Z,3.00
2018-12-01T22:22:44.890Z,2.90
2018-12-01T22:25:13.315Z,2.80
2018-12-01T22:27:41.614Z,2.70
2018-12-01T22:30:18.072Z,2.70
2018-12-01T22:32:48.883Z,2.70
2018-12-01T22:35:18.825Z,2.60
2018-12-01T22:37:47.298Z,2.50
2018-12-01T22:40:17.053Z,2.50
2018-12-01T22:42:45.355Z,2.50
2018-12-01T22:45:13.662Z,2.40
2018-12-01T22:47:41.974Z,2.40
2018-12-01T22:50:19.067Z,2.30
2018-12-01T22:52:47.593Z,2.20
2018-12-01T22:55:18.059Z,2.10
2018-12-01T22:57:49.079Z,2.20
2018-12-01T23:00:19.566Z,2.10
2018-12-01T23:02:47.855Z,2.10
2018-12-01T23:05:17.033Z,2.10
2018-12-01T23:07:45.055Z,2.20
2018-12-01T23:10:14.450Z,2.10
2018-12-01T23:12:43.518Z,2.30
2018-12-01T23:15:12.961Z,2.40
2018-12-01T23:17:42.719Z,2.40
2018-12-01T23:20:16.142Z,2.30
2018-12-01T23:22:44.459Z,2.10
2018-12-01T23:25:12.791Z,2.10
2018-12-01T23:27:41.098Z,2.00
2018-12-01T23:30:18.382Z,1.80
2018-12-01T23:32:48.370Z,1.70
2018-12-01T23:35:16.825Z,1.50
2018-12-01T23:37:45.150Z,1.40
2018-12-01T23:40:13.797Z,1.40
2018-12-01T23:42:42.137Z,1.30
2018-12-01T23:45:17.445Z,1.30
2018-12-01T23:47:46.338Z,1.30
2018-12-01T23:50:22.438Z,1.30
2018-12-01T23:52:52.202Z,1.30
2018-12-01T23:55:20.530Z,1.30
2018-12-01T23:57:48.830Z,1.30
